createdAt,value
2019-05-22T00:01:41.086Z,42.43
2019-05-22T00:04:18.385Z,40.58
2019-05-22T00:06:50.562Z,41.42
2019-05-22T00:09:26.053Z,40.43
2019-05-22T00:11:56.523Z,40.73
2019-05-22T00:14:28.412Z,39.85
2019-05-22T00:16:59.440Z,40.50
2019-05-22T00:19:30.671Z,38.53
2019-05-22T00:22:11.324Z,37.65
2019-05-22T00:24:44.223Z,37.95
2019-05-22T00:27:15.139Z,37.13
2019-05-22T00:29:48.228Z,34.83
2019-05-22T00:32:17.895Z,36.45
2019-05-22T00:34:48.512Z,36.73
2019-05-22T00:37:19.547Z,35.88
2019-05-22T00:39:49.259Z,34.03
2019-05-22T00:42:20.705Z,33.85
2019-05-22T00:44:51.711Z,32.60
2019-05-22T00:47:22.735Z,33.10
2019-05-22T00:49:55.285Z,33.53
2019-05-22T00:52:43.495Z,33.08
2019-05-22T00:55:32.111Z,33.05
2019-05-22T00:58:26.920Z,33.18
2019-05-22T01:01:01.904Z,31.70
2019-05-22T01:03:33.686Z,32.50
2019-05-22T01:06:04.944Z,31.70
2019-05-22T01:08:37.584Z,33.78
2019-05-22T01:13:37.942Z,33.33
2019-05-22T01:16:09.098Z,33.00
2019-05-22T01:18:38.998Z,34.00
2019-05-22T01:21:10.416Z,33.15
2019-05-22T01:23:40.259Z,33.23
2019-05-22T01:26:13.605Z,33.60
2019-05-22T01:28:46.199Z,33.63
2019-05-22T01:31:33.294Z,29.80
2019-05-22T01:34:08.185Z,29.77
2019-05-22T01:36:44.531Z,28.45
2019-05-22T01:39:39.483Z,28.20
2019-05-22T01:42:12.699Z,25.85
2019-05-22T01:44:57.968Z,22.93
2019-05-22T01:47:20.879Z,22.42
2019-05-22T01:49:54.099Z,22.10
2019-05-22T01:52:23.767Z,20.10
2019-05-22T01:54:55.040Z,19.17
2019-05-22T01:57:26.495Z,17.80
2019-05-22T01:59:57.046Z,16.42
2019-05-22T02:02:26.870Z,18.20
2019-05-22T02:04:58.254Z,15.60
2019-05-22T02:07:29.016Z,16.52
2019-05-22T02:09:59.483Z,15.65
2019-05-22T02:12:50.955Z,12.95
2019-05-22T02:15:21.956Z,12.28
2019-05-22T02:17:52.704Z,11.18
2019-05-22T02:20:22.548Z,12.25
2019-05-22T02:22:52.265Z,11.33
2019-05-22T02:25:21.542Z,11.95
2019-05-22T02:27:51.678Z,11.45
2019-05-22T02:30:23.199Z,11.70
2019-05-22T02:32:53.139Z,11.63
2019-05-22T02:35:23.788Z,12.47
2019-05-22T02:37:53.272Z,12.30
2019-05-22T02:40:27.250Z,12.20
2019-05-22T02:42:58.433Z,11.85
2019-05-22T02:45:29.068Z,11.97
2019-05-22T02:48:00.634Z,12.43
2019-05-22T02:50:30.377Z,12.53
2019-05-22T02:53:01.613Z,12.18
2019-05-22T02:55:30.964Z,12.45
2019-05-22T02:58:00.511Z,12.50
2019-05-22T03:00:34.389Z,12.50
2019-05-22T03:03:06.165Z,12.30
2019-05-22T03:05:35.636Z,12.30
2019-05-22T03:08:05.205Z,12.10
2019-05-22T03:10:34.787Z,12.25
2019-05-22T03:13:04.121Z,11.35
2019-05-22T03:15:33.863Z,11.88
2019-05-22T03:18:05.299Z,12.53
2019-05-22T03:20:36.397Z,12.03
2019-05-22T03:23:14.457Z,12.37
2019-05-22T03:25:44.790Z,11.93
2019-05-22T03:28:14.966Z,12.10
2019-05-22T03:30:46.572Z,12.07
2019-05-22T03:33:16.263Z,12.93
2019-05-22T03:35:48.537Z,13.05
2019-05-22T03:38:20.342Z,12.60
2019-05-22T03:40:53.155Z,12.28
2019-05-22T03:43:25.249Z,12.50
2019-05-22T03:45:57.199Z,13.53
2019-05-22T03:48:28.333Z,12.40
2019-05-22T03:51:07.789Z,13.03
2019-05-22T03:53:37.361Z,12.00
2019-05-22T03:56:06.645Z,11.60
2019-05-22T03:58:36.166Z,11.85
2019-05-22T04:01:07.205Z,12.33
2019-05-22T04:03:36.599Z,11.40
2019-05-22T04:06:06.980Z,11.45
2019-05-22T04:08:37.330Z,12.30
2019-05-22T04:11:08.398Z,12.07
2019-05-22T04:13:38.666Z,11.43
2019-05-22T04:16:10.741Z,12.10
2019-05-22T04:18:40.756Z,11.88
2019-05-22T04:21:10.122Z,12.73
2019-05-22T04:23:39.896Z,11.97
2019-05-22T04:26:11.973Z,11.30
2019-05-22T04:28:49.972Z,11.85
2019-05-22T04:31:23.211Z,12.03
2019-05-22T04:33:53.092Z,12.53
2019-05-22T04:36:24.204Z,12.25
2019-05-22T04:38:53.596Z,11.80
2019-05-22T04:41:22.911Z,12.40
2019-05-22T04:43:52.360Z,12.18
2019-05-22T04:46:23.356Z,12.40
2019-05-22T04:48:54.007Z,12.25
2019-05-22T04:51:31.157Z,12.65
2019-05-22T04:54:00.641Z,11.97
2019-05-22T04:56:30.604Z,12.70
2019-05-22T04:59:01.836Z,12.07
2019-05-22T05:01:31.226Z,12.10
2019-05-22T05:04:01.525Z,12.50
2019-05-22T05:06:33.504Z,13.50
2019-05-22T05:09:03.937Z,12.33
2019-05-22T05:11:34.043Z,12.28
2019-05-22T05:14:03.400Z,11.78
2019-05-22T05:16:32.835Z,12.23
2019-05-22T05:19:02.221Z,12.28
2019-05-22T05:21:31.529Z,11.93
2019-05-22T05:24:00.819Z,12.20
2019-05-22T05:26:31.505Z,12.47
2019-05-22T05:29:01.319Z,13.53
2019-05-22T05:31:31.136Z,13.03
2019-05-22T05:34:32.322Z,13.58
2019-05-22T05:37:05.164Z,13.32
2019-05-22T05:40:39.311Z,12.63
2019-05-22T05:43:10.637Z,12.23
2019-05-22T05:45:41.972Z,12.13
2019-05-22T05:48:14.104Z,12.43
2019-05-22T05:51:11.148Z,12.28
2019-05-22T05:54:01.028Z,12.28
2019-05-22T05:56:33.416Z,12.07
2019-05-22T05:59:04.773Z,12.07
2019-05-22T06:01:38.951Z,12.50
2019-05-22T06:04:11.064Z,12.50
2019-05-22T06:07:21.773Z,11.78
2019-05-22T06:10:42.821Z,12.78
2019-05-22T06:13:12.748Z,12.47
2019-05-22T06:16:29.331Z,12.50
2019-05-22T06:18:59.327Z,13.05
2019-05-22T06:21:29.296Z,14.00
2019-05-22T06:24:29.900Z,13.62
2019-05-22T06:27:18.928Z,12.82
2019-05-22T06:29:59.345Z,12.68
2019-05-22T06:33:21.631Z,13.90
2019-05-22T06:35:51.319Z,13.48
2019-05-22T06:38:52.902Z,14.33
2019-05-22T06:41:29.118Z,14.63
2019-05-22T06:44:36.134Z,14.03
2019-05-22T06:47:09.063Z,14.53
2019-05-22T06:49:56.749Z,13.90
2019-05-22T06:52:26.525Z,14.60
2019-05-22T06:54:56.544Z,14.30
2019-05-22T06:57:32.005Z,15.03
2019-05-22T07:00:21.640Z,13.58
2019-05-22T07:02:51.014Z,13.10
2019-05-22T07:05:20.828Z,13.58
2019-05-22T07:07:50.495Z,12.60
2019-05-22T07:10:20.692Z,13.40
2019-05-22T07:12:51.008Z,12.43
2019-05-22T07:15:51.155Z,12.88
2019-05-22T07:18:22.553Z,12.73
2019-05-22T07:20:52.454Z,13.20
2019-05-22T07:23:30.347Z,13.28
2019-05-22T07:26:00.903Z,12.05
2019-05-22T07:28:31.952Z,12.23
2019-05-22T07:31:02.900Z,12.05
2019-05-22T07:33:32.897Z,11.20
2019-05-22T07:36:09.852Z,12.43
2019-05-22T07:38:37.754Z,12.40
2019-05-22T07:41:07.732Z,11.88
2019-05-22T07:43:41.209Z,11.97
2019-05-22T07:46:08.722Z,11.75
2019-05-22T07:48:38.488Z,11.05
2019-05-22T07:51:08.767Z,11.65
2019-05-22T07:53:38.080Z,11.48
2019-05-22T07:56:11.453Z,10.98
2019-05-22T07:58:42.013Z,10.75
2019-05-22T08:01:12.213Z,11.18
2019-05-22T08:03:43.636Z,11.05
2019-05-22T08:06:13.204Z,10.80
2019-05-22T08:08:44.498Z,10.60
2019-05-22T08:11:14.527Z,10.03
2019-05-22T08:13:45.291Z,11.20
2019-05-22T08:16:16.862Z,10.40
2019-05-22T08:18:46.573Z,10.85
2019-05-22T08:21:15.968Z,10.90
2019-05-22T08:23:45.546Z,10.95
2019-05-22T08:26:16.855Z,10.85
2019-05-22T08:28:46.328Z,10.82
2019-05-22T08:31:17.243Z,11.28
2019-05-22T08:33:46.735Z,11.05
2019-05-22T08:36:16.283Z,11.75
2019-05-22T08:38:45.766Z,11.35
2019-05-22T08:41:18.943Z,11.28
2019-05-22T08:44:13.959Z,10.98
2019-05-22T08:46:20.444Z,10.80
2019-05-22T08:48:50.093Z,11.88
2019-05-22T08:51:19.923Z,12.43
2019-05-22T08:53:49.685Z,11.43
2019-05-22T08:56:19.621Z,11.15
2019-05-22T08:58:48.955Z,10.80
2019-05-22T09:01:20.017Z,10.23
2019-05-22T09:03:49.379Z,10.03
2019-05-22T09:06:18.946Z,9.95
2019-05-22T09:08:51.504Z,10.75
2019-05-22T09:11:25.112Z,10.35
2019-05-22T09:13:52.052Z,9.60
2019-05-22T09:16:21.628Z,9.30
2019-05-22T09:18:52.458Z,9.43
2019-05-22T09:21:23.517Z,9.18
2019-05-22T09:23:55.829Z,8.90
2019-05-22T09:26:26.080Z,9.80
2019-05-22T09:28:55.616Z,9.00
2019-05-22T09:31:26.199Z,8.73
2019-05-22T09:34:00.219Z,9.78
2019-05-22T09:36:34.435Z,9.38
2019-05-22T09:39:05.648Z,8.68
2019-05-22T09:41:35.097Z,9.73
2019-05-22T09:44:04.745Z,10.18
2019-05-22T09:46:34.237Z,10.00
2019-05-22T09:49:04.981Z,8.63
2019-05-22T09:51:34.361Z,8.48
2019-05-22T09:54:04.765Z,9.00
2019-05-22T09:56:34.382Z,10.95
2019-05-22T09:59:05.104Z,11.22
2019-05-22T10:01:34.765Z,10.85
2019-05-22T10:04:04.694Z,11.25
2019-05-22T10:06:34.170Z,11.18
2019-05-22T10:09:04.308Z,11.25
2019-05-22T10:11:35.660Z,11.73
2019-05-22T10:14:06.444Z,11.15
2019-05-22T10:16:37.402Z,10.48
2019-05-22T10:19:06.978Z,10.08
2019-05-22T10:21:37.439Z,9.05
2019-05-22T10:24:06.910Z,9.73
2019-05-22T10:26:37.301Z,9.18
2019-05-22T10:29:08.253Z,8.53
2019-05-22T10:31:37.740Z,9.08
2019-05-22T10:34:08.363Z,22.75
2019-05-22T10:36:43.093Z,10.95
2019-05-22T10:39:10.664Z,10.72
2019-05-22T10:41:39.972Z,10.58
2019-05-22T10:44:09.292Z,10.95
2019-05-22T10:46:38.718Z,10.03
2019-05-22T10:49:08.100Z,9.38
2019-05-22T10:51:37.698Z,9.43
2019-05-22T10:54:07.078Z,10.03
2019-05-22T10:56:36.377Z,10.48
2019-05-22T10:59:06.991Z,10.15
2019-05-22T11:01:37.692Z,10.90
2019-05-22T11:04:08.123Z,10.32
2019-05-22T11:06:37.813Z,10.63
2019-05-22T11:09:09.765Z,11.63
2019-05-22T11:11:40.376Z,10.23
2019-05-22T11:14:11.296Z,11.93
2019-05-22T11:16:40.637Z,11.45
2019-05-22T11:19:10.370Z,12.45
2019-05-22T11:21:39.643Z,11.97
2019-05-22T11:24:09.793Z,12.23
2019-05-22T11:26:39.132Z,11.05
2019-05-22T11:29:09.350Z,10.70
2019-05-22T11:31:39.400Z,11.53
2019-05-22T11:34:08.901Z,12.28
2019-05-22T11:36:39.085Z,12.93
2019-05-22T11:39:14.003Z,11.93
2019-05-22T11:41:43.996Z,11.05
2019-05-22T11:44:14.333Z,11.48
2019-05-22T11:46:45.072Z,11.25
2019-05-22T11:49:14.372Z,11.38
2019-05-22T11:51:44.146Z,10.95
2019-05-22T11:54:13.554Z,11.68
2019-05-22T11:56:42.964Z,12.00
2019-05-22T11:59:13.808Z,28.47
2019-05-22T12:01:43.410Z,11.48
2019-05-22T12:04:13.591Z,10.78
2019-05-22T12:06:43.887Z,11.85
2019-05-22T12:09:16.697Z,11.48
2019-05-22T12:11:46.707Z,10.78
2019-05-22T12:14:18.497Z,10.58
2019-05-22T12:16:53.009Z,10.55
2019-05-22T12:19:22.601Z,10.48
2019-05-22T12:21:52.009Z,10.45
2019-05-22T12:24:27.906Z,11.78
2019-05-22T12:26:52.905Z,11.25
2019-05-22T12:29:22.863Z,10.63
2019-05-22T12:31:52.414Z,10.15
2019-05-22T12:34:21.784Z,8.60
2019-05-22T12:36:51.803Z,9.68
2019-05-22T12:39:24.149Z,9.50
2019-05-22T12:41:55.322Z,9.33
2019-05-22T12:44:25.440Z,9.18
2019-05-22T12:46:54.838Z,9.38
2019-05-22T12:49:26.061Z,8.70
2019-05-22T12:51:55.489Z,9.08
2019-05-22T12:54:24.800Z,9.20
2019-05-22T12:56:55.265Z,9.85
2019-05-22T12:59:27.359Z,9.68
2019-05-22T13:01:58.189Z,8.98
2019-05-22T13:04:29.273Z,9.33
2019-05-22T13:07:00.706Z,9.28
2019-05-22T13:09:31.133Z,11.22
2019-05-22T13:12:00.630Z,9.78
2019-05-22T13:14:30.440Z,10.43
2019-05-22T13:17:01.758Z,9.75
2019-05-22T13:19:33.712Z,9.98
2019-05-22T13:22:04.548Z,10.43
2019-05-22T13:24:35.363Z,10.93
2019-05-22T13:27:07.629Z,11.38
2019-05-22T13:29:37.156Z,10.72
2019-05-22T13:32:08.771Z,11.53
2019-05-22T13:34:39.952Z,10.63
2019-05-22T13:37:10.218Z,10.40
2019-05-22T13:39:39.971Z,10.70
2019-05-22T13:42:13.321Z,11.35
2019-05-22T13:44:42.771Z,10.48
2019-05-22T13:47:12.729Z,9.83
2019-05-22T13:49:42.940Z,10.43
2019-05-22T13:52:14.415Z,10.85
2019-05-22T13:54:47.724Z,11.08
2019-05-22T13:57:17.536Z,10.85
2019-05-22T13:59:47.222Z,10.20
2019-05-22T14:02:16.618Z,10.13
2019-05-22T14:04:46.050Z,11.28
2019-05-22T14:07:16.252Z,11.63
2019-05-22T14:09:46.032Z,11.25
2019-05-22T14:12:15.389Z,10.90
2019-05-22T14:14:45.448Z,11.05
2019-05-22T14:17:14.763Z,10.63
2019-05-22T14:19:44.106Z,10.90
2019-05-22T14:22:13.437Z,11.10
2019-05-22T14:24:42.773Z,10.85
2019-05-22T14:27:12.173Z,10.60
2019-05-22T14:29:41.728Z,11.43
2019-05-22T14:32:11.808Z,10.00
2019-05-22T14:34:41.573Z,9.88
2019-05-22T14:37:12.923Z,8.73
2019-05-22T14:39:42.773Z,9.55
2019-05-22T14:42:13.748Z,9.60
2019-05-22T14:44:43.140Z,10.40
2019-05-22T14:47:15.937Z,9.08
2019-05-22T14:49:43.672Z,8.90
2019-05-22T14:52:14.136Z,8.30
2019-05-22T14:54:43.465Z,8.23
2019-05-22T14:57:12.893Z,9.05
2019-05-22T14:59:42.148Z,9.25
2019-05-22T15:02:12.049Z,8.58
2019-05-22T15:04:42.139Z,8.35
2019-05-22T15:07:11.555Z,8.85
2019-05-22T15:09:40.936Z,9.18
2019-05-22T15:12:10.751Z,10.68
2019-05-22T15:14:40.037Z,9.00
2019-05-22T15:17:09.636Z,8.98
2019-05-22T15:19:38.978Z,10.93
2019-05-22T15:22:08.986Z,10.78
2019-05-22T15:24:38.408Z,10.10
2019-05-22T15:27:09.432Z,9.55
2019-05-22T15:29:38.851Z,10.38
2019-05-22T15:32:09.286Z,10.68
2019-05-22T15:34:39.919Z,9.98
2019-05-22T15:37:10.996Z,10.32
2019-05-22T15:39:40.803Z,11.80
2019-05-22T15:42:13.096Z,10.68
2019-05-22T15:44:42.889Z,11.43
2019-05-22T15:47:12.281Z,11.18
2019-05-22T15:49:44.890Z,10.80
2019-05-22T15:54:46.317Z,10.98
2019-05-22T15:57:17.201Z,11.12
2019-05-22T15:59:47.661Z,10.60
2019-05-22T16:02:21.708Z,11.20
2019-05-22T16:07:18.797Z,11.83
2019-05-22T16:09:50.431Z,10.90
2019-05-22T16:12:19.754Z,10.48
2019-05-22T16:14:51.427Z,10.10
2019-05-22T16:17:22.294Z,9.97
2019-05-22T16:19:53.018Z,10.13
2019-05-22T16:22:22.452Z,11.20
2019-05-22T16:24:53.374Z,10.05
2019-05-22T16:27:23.744Z,10.93
2019-05-22T16:29:55.172Z,10.55
2019-05-22T16:32:26.268Z,10.43
2019-05-22T16:34:56.064Z,10.15
2019-05-22T16:37:25.537Z,9.78
2019-05-22T16:39:54.895Z,10.50
2019-05-22T16:42:24.198Z,9.50
2019-05-22T16:44:53.628Z,9.10
2019-05-22T16:47:22.921Z,9.35
2019-05-22T16:49:53.898Z,10.63
2019-05-22T16:52:26.985Z,9.73
2019-05-22T16:54:59.781Z,9.28
2019-05-22T16:57:31.517Z,8.30
2019-05-22T17:00:01.469Z,8.77
2019-05-22T17:02:32.638Z,9.98
2019-05-22T17:05:02.528Z,9.33
2019-05-22T17:07:32.695Z,10.32
2019-05-22T17:10:03.587Z,8.80
2019-05-22T17:12:33.231Z,8.68
2019-05-22T17:15:02.716Z,8.38
2019-05-22T17:17:32.267Z,7.70
2019-05-22T17:20:01.755Z,7.58
2019-05-22T17:22:31.134Z,7.80
2019-05-22T17:25:00.452Z,7.33
2019-05-22T17:27:30.610Z,8.18
2019-05-22T17:30:00.614Z,7.78
2019-05-22T17:32:29.974Z,7.22
2019-05-22T17:35:00.463Z,7.83
2019-05-22T17:37:31.103Z,7.37
2019-05-22T17:40:04.245Z,8.70
2019-05-22T17:42:35.009Z,7.70
2019-05-22T17:45:04.800Z,7.97
2019-05-22T17:47:34.408Z,7.70
2019-05-22T17:50:04.353Z,7.40
2019-05-22T17:52:33.968Z,7.75
2019-05-22T17:55:05.617Z,8.70
2019-05-22T17:57:35.057Z,8.27
2019-05-22T18:00:07.258Z,7.33
2019-05-22T18:02:37.071Z,7.90
2019-05-22T18:05:07.880Z,6.72
2019-05-22T18:07:38.707Z,7.05
2019-05-22T18:10:09.330Z,7.40
2019-05-22T18:12:38.942Z,7.25
2019-05-22T18:15:10.138Z,6.97
2019-05-22T18:17:39.911Z,8.50
2019-05-22T18:20:11.379Z,8.95
2019-05-22T18:22:41.225Z,8.78
2019-05-22T18:25:11.263Z,8.38
2019-05-22T18:27:40.611Z,9.15
2019-05-22T18:30:11.143Z,8.75
2019-05-22T18:32:42.582Z,9.20
2019-05-22T18:35:13.536Z,9.63
2019-05-22T18:37:42.924Z,9.05
2019-05-22T18:40:13.124Z,9.28
2019-05-22T18:42:42.661Z,9.95
2019-05-22T18:45:34.439Z,10.03
2019-05-22T18:48:04.529Z,8.65
2019-05-22T18:50:34.716Z,9.23
2019-05-22T18:53:06.853Z,9.25
2019-05-22T18:55:36.178Z,9.90
2019-05-22T18:58:06.130Z,9.63
2019-05-22T19:00:35.878Z,10.20
2019-05-22T19:03:05.744Z,12.25
2019-05-22T19:05:35.612Z,10.88
2019-05-22T19:08:04.966Z,11.50
2019-05-22T19:10:34.420Z,11.63
2019-05-22T19:13:04.353Z,12.10
2019-05-22T19:15:33.809Z,11.28
2019-05-22T19:18:03.787Z,11.53
2019-05-22T19:20:33.163Z,10.35
2019-05-22T19:23:02.714Z,11.08
2019-05-22T19:25:32.270Z,10.63
2019-05-22T19:28:01.719Z,11.95
2019-05-22T19:30:31.304Z,12.18
2019-05-22T19:33:00.666Z,11.73
2019-05-22T19:35:30.039Z,11.93
2019-05-22T19:38:00.910Z,12.70
2019-05-22T19:40:30.922Z,12.35
2019-05-22T19:43:00.548Z,12.30
2019-05-22T19:45:31.068Z,12.60
2019-05-22T19:48:01.880Z,12.45
2019-05-22T19:50:31.280Z,12.80
2019-05-22T19:53:17.469Z,13.10
2019-05-22T19:55:35.434Z,13.22
2019-05-22T19:58:05.666Z,13.85
2019-05-22T20:00:35.919Z,13.22
2019-05-22T20:03:05.975Z,13.43
2019-05-22T20:05:36.615Z,14.00
2019-05-22T20:08:06.082Z,14.83
2019-05-22T20:10:35.773Z,14.10
2019-05-22T20:13:08.161Z,15.30
2019-05-22T20:15:38.725Z,16.07
2019-05-22T20:18:08.563Z,16.67
2019-05-22T20:20:38.567Z,15.75
2019-05-22T20:23:09.406Z,17.07
2019-05-22T20:25:39.161Z,17.40
2019-05-22T20:28:10.176Z,17.30
2019-05-22T20:30:51.187Z,18.82
2019-05-22T20:33:20.934Z,20.97
2019-05-22T20:35:50.387Z,21.02
2019-05-22T20:38:19.784Z,22.50
2019-05-22T20:40:49.349Z,23.07
2019-05-22T20:43:20.366Z,23.70
2019-05-22T20:45:50.776Z,23.83
2019-05-22T20:48:28.194Z,24.27
2019-05-22T20:50:59.717Z,26.20
2019-05-22T20:53:31.024Z,25.82
2019-05-22T20:56:01.037Z,26.10
2019-05-22T20:58:32.448Z,25.95
2019-05-22T21:01:03.431Z,25.40
2019-05-22T21:03:33.387Z,26.35
2019-05-22T21:06:07.805Z,26.48
2019-05-22T21:08:38.129Z,26.37
2019-05-22T21:11:09.655Z,26.02
2019-05-22T21:13:39.870Z,26.33
2019-05-22T21:16:09.489Z,25.55
2019-05-22T21:18:42.643Z,25.80
2019-05-22T21:21:13.786Z,25.97
2019-05-22T21:23:44.143Z,25.75
2019-05-22T21:26:15.146Z,25.52
2019-05-22T21:28:45.678Z,26.65
2019-05-22T21:31:17.052Z,25.50
2019-05-22T21:33:46.839Z,27.00
2019-05-22T21:36:18.931Z,26.25
2019-05-22T21:38:48.325Z,27.00
2019-05-22T21:41:21.935Z,25.70
2019-05-22T21:43:52.461Z,26.60
2019-05-22T21:46:22.356Z,26.48
2019-05-22T21:48:56.418Z,25.12
2019-05-22T21:51:26.343Z,25.43
2019-05-22T21:53:56.489Z,24.85
2019-05-22T21:56:26.066Z,25.30
2019-05-22T21:58:55.872Z,24.82
2019-05-22T22:01:39.089Z,25.72
2019-05-22T22:04:20.298Z,24.95
2019-05-22T22:06:51.237Z,25.85
2019-05-22T22:09:21.781Z,24.82
2019-05-22T22:11:52.813Z,24.85
2019-05-22T22:14:24.086Z,24.43
2019-05-22T22:16:53.509Z,25.72
2019-05-22T22:19:23.864Z,24.32
2019-05-22T22:21:53.139Z,24.45
2019-05-22T22:24:23.072Z,25.52
2019-05-22T22:26:53.133Z,24.75
2019-05-22T22:29:23.195Z,24.55
2019-05-22T22:31:54.174Z,25.88
2019-05-22T22:34:30.625Z,24.77
2019-05-22T22:37:00.690Z,25.52
2019-05-22T22:39:38.327Z,26.02
2019-05-22T22:42:10.892Z,26.42
2019-05-22T22:44:41.051Z,26.33
2019-05-22T22:47:15.949Z,25.57
2019-05-22T22:49:45.926Z,26.77
2019-05-22T22:52:16.176Z,26.57
2019-05-22T22:54:46.102Z,25.77
2019-05-22T22:57:15.841Z,26.77
2019-05-22T22:59:45.779Z,26.20
2019-05-22T23:02:18.238Z,26.45
2019-05-22T23:04:48.736Z,25.00
2019-05-22T23:07:19.632Z,26.07
2019-05-22T23:09:49.369Z,24.52
2019-05-22T23:12:19.628Z,25.62
2019-05-22T23:14:56.748Z,25.97
2019-05-22T23:17:26.143Z,26.93
2019-05-22T23:19:54.898Z,26.25
2019-05-22T23:22:28.628Z,27.93
2019-05-22T23:24:59.566Z,27.95
2019-05-22T23:27:31.428Z,28.40
2019-05-22T23:30:01.100Z,27.07
2019-05-22T23:32:30.992Z,28.32
2019-05-22T23:35:01.017Z,30.15
2019-05-22T23:37:30.462Z,28.80
2019-05-22T23:40:00.064Z,28.65
2019-05-22T23:42:35.030Z,29.07
2019-05-22T23:45:07.546Z,28.25
2019-05-22T23:47:45.277Z,29.35
2019-05-22T23:50:15.465Z,29.60
2019-05-22T23:52:44.860Z,30.08
2019-05-22T23:55:14.437Z,29.77
2019-05-22T23:57:43.791Z,28.77
